sensor_id;sensor_type;location;lat;lon;timestamp;pressure;altitude;pressure_sealevel;temperature;humidity
6778;BME280;3426;52.244;10.534;2022-11-20T00:01:16;100458.34;;;1.41;66.97
6778;BME280;3426;52.244;10.534;2022-11-20T00:03:43;100464.06;;;1.17;67.23
6778;BME280;3426;52.244;10.534;2022-11-20T00:06:12;100465.31;;;1.41;66.33
6778;BME280;3426;52.244;10.534;2022-11-20T00:08:39;100459.31;;;1.37;66.28
6778;BME280;3426;52.244;10.534;2022-11-20T00:13:42;100446.16;;;1.42;65.79
6778;BME280;3426;52.244;10.534;2022-11-20T00:16:13;100454.00;;;1.42;66.36
6778;BME280;3426;52.244;10.534;2022-11-20T00:18:40;100443.63;;;1.39;66.29
6778;BME280;3426;52.244;10.534;2022-11-20T00:23:43;100444.31;;;1.48;65.66
6778;BME280;3426;52.244;10.534;2022-11-20T00:26:12;100448.34;;;1.63;65.75
6778;BME280;3426;52.244;10.534;2022-11-20T00:28:39;100441.34;;;1.65;64.94
6778;BME280;3426;52.244;10.534;2022-11-20T00:31:14;100442.97;;;1.71;65.43
6778;BME280;3426;52.244;10.534;2022-11-20T00:33:42;100435.38;;;1.60;65.16
6778;BME280;3426;52.244;10.534;2022-11-20T00:36:11;100443.34;;;1.54;65.54
6778;BME280;3426;52.244;10.534;2022-11-20T00:38:38;100438.00;;;1.58;64.99
6778;BME280;3426;52.244;10.534;2022-11-20T00:41:07;100438.97;;;1.53;64.88
6778;BME280;3426;52.244;10.534;2022-11-20T00:43:34;100443.34;;;1.54;65.49
6778;BME280;3426;52.244;10.534;2022-11-20T00:46:07;100435.50;;;1.52;65.74
6778;BME280;3426;52.244;10.534;2022-11-20T00:48:34;100439.88;;;1.53;65.09
6778;BME280;3426;52.244;10.534;2022-11-20T00:51:01;100436.53;;;1.45;65.99
6778;BME280;3426;52.244;10.534;2022-11-20T00:53:28;100438.13;;;1.52;65.67
6778;BME280;3426;52.244;10.534;2022-11-20T00:56:09;100446.00;;;1.51;64.85
6778;BME280;3426;52.244;10.534;2022-11-20T00:58:38;100438.25;;;1.46;65.17
6778;BME280;3426;52.244;10.534;2022-11-20T01:01:21;100426.34;;;1.33;65.66
6778;BME280;3426;52.244;10.534;2022-11-20T01:03:52;100431.59;;;1.31;65.34
6778;BME280;3426;52.244;10.534;2022-11-20T01:06:21;100443.88;;;1.26;65.46
6778;BME280;3426;52.244;10.534;2022-11-20T01:08:49;100443.84;;;1.28;65.29
6778;BME280;3426;52.244;10.534;2022-11-20T01:11:19;100436.28;;;1.14;65.67
6778;BME280;3426;52.244;10.534;2022-11-20T01:13:49;100433.72;;;1.11;64.92
6778;BME280;3426;52.244;10.534;2022-11-20T01:16:25;100437.03;;;1.21;65.52
6778;BME280;3426;52.244;10.534;2022-11-20T01:18:53;100429.28;;;1.16;65.47
6778;BME280;3426;52.244;10.534;2022-11-20T01:21:22;100437.47;;;0.98;65.39
6778;BME280;3426;52.244;10.534;2022-11-20T01:23:50;100436.81;;;0.87;65.42
6778;BME280;3426;52.244;10.534;2022-11-20T01:26:26;100427.94;;;0.97;65.30
6778;BME280;3426;52.244;10.534;2022-11-20T01:28:54;100424.34;;;1.01;65.53
6778;BME280;3426;52.244;10.534;2022-11-20T01:31:26;100427.81;;;1.03;65.42
6778;BME280;3426;52.244;10.534;2022-11-20T01:33:54;100417.31;;;1.06;64.71
6778;BME280;3426;52.244;10.534;2022-11-20T01:36:24;100418.34;;;0.97;64.73
6778;BME280;3426;52.244;10.534;2022-11-20T01:38:52;100409.72;;;0.94;65.23
6778;BME280;3426;52.244;10.534;2022-11-20T01:41:19;100412.38;;;0.91;64.75
6778;BME280;3426;52.244;10.534;2022-11-20T01:44:05;100406.31;;;0.90;64.84
6778;BME280;3426;52.244;10.534;2022-11-20T01:46:37;100409.50;;;0.58;65.34
6778;BME280;3426;52.244;10.534;2022-11-20T01:51:55;100405.44;;;0.91;64.79
6778;BME280;3426;52.244;10.534;2022-11-20T01:54:28;100402.78;;;0.45;66.00
6778;BME280;3426;52.244;10.534;2022-11-20T01:56:57;100392.19;;;0.54;65.34
6778;BME280;3426;52.244;10.534;2022-11-20T01:59:26;100387.66;;;0.65;65.16
6778;BME280;3426;52.244;10.534;2022-11-20T02:01:53;100386.31;;;0.43;65.88
6778;BME280;3426;52.244;10.534;2022-11-20T02:04:20;100384.28;;;0.60;65.67
6778;BME280;3426;52.244;10.534;2022-11-20T02:06:55;100388.47;;;0.67;65.87
6778;BME280;3426;52.244;10.534;2022-11-20T02:09:24;100382.41;;;0.67;65.50
6778;BME280;3426;52.244;10.534;2022-11-20T02:11:51;100379.72;;;0.71;65.40
6778;BME280;3426;52.244;10.534;2022-11-20T02:14:18;100382.38;;;0.70;65.52
6778;BME280;3426;52.244;10.534;2022-11-20T02:16:47;100378.34;;;0.52;65.17
6778;BME280;3426;52.244;10.534;2022-11-20T02:19:27;100371.19;;;0.63;64.98
6778;BME280;3426;52.244;10.534;2022-11-20T02:22:14;100371.41;;;0.51;65.66
6778;BME280;3426;52.244;10.534;2022-11-20T02:24:43;100380.00;;;0.56;65.66
6778;BME280;3426;52.244;10.534;2022-11-20T02:27:16;100375.59;;;0.60;66.11
6778;BME280;3426;52.244;10.534;2022-11-20T02:29:51;100383.47;;;0.58;65.93
6778;BME280;3426;52.244;10.534;2022-11-20T02:32:33;100376.56;;;0.54;66.29
6778;BME280;3426;52.244;10.534;2022-11-20T02:35:37;100372.38;;;0.45;66.10
6778;BME280;3426;52.244;10.534;2022-11-20T02:37:58;100368.03;;;0.46;66.36
6778;BME280;3426;52.244;10.534;2022-11-20T02:40:25;100374.16;;;0.43;67.04
6778;BME280;3426;52.244;10.534;2022-11-20T02:42:53;100367.19;;;0.44;66.84
6778;BME280;3426;52.244;10.534;2022-11-20T02:45:19;100369.88;;;0.41;66.73
6778;BME280;3426;52.244;10.534;2022-11-20T02:47:46;100361.09;;;0.45;67.54
6778;BME280;3426;52.244;10.534;2022-11-20T02:50:13;100370.75;;;0.40;67.38
6778;BME280;3426;52.244;10.534;2022-11-20T02:52:39;100362.84;;;0.46;66.72
6778;BME280;3426;52.244;10.534;2022-11-20T02:55:06;100360.00;;;0.57;66.39
6778;BME280;3426;52.244;10.534;2022-11-20T02:57:33;100363.56;;;0.52;67.25
6778;BME280;3426;52.244;10.534;2022-11-20T03:00:00;100359.97;;;0.60;66.62
6778;BME280;3426;52.244;10.534;2022-11-20T03:02:30;100359.16;;;0.56;66.76
6778;BME280;3426;52.244;10.534;2022-11-20T03:04:56;100366.84;;;0.62;67.12
6778;BME280;3426;52.244;10.534;2022-11-20T03:07:23;100365.09;;;0.64;66.86
6778;BME280;3426;52.244;10.534;2022-11-20T03:09:50;100360.66;;;0.68;66.43
6778;BME280;3426;52.244;10.534;2022-11-20T03:12:16;100355.19;;;0.35;66.88
6778;BME280;3426;52.244;10.534;2022-11-20T03:14:43;100361.09;;;0.45;68.23
6778;BME280;3426;52.244;10.534;2022-11-20T03:17:16;100369.44;;;0.64;66.55
6778;BME280;3426;52.244;10.534;2022-11-20T03:19:42;100359.16;;;0.58;66.40
6778;BME280;3426;52.244;10.534;2022-11-20T03:22:08;100359.00;;;0.65;66.26
6778;BME280;3426;52.244;10.534;2022-11-20T03:24:35;100352.09;;;0.61;66.44
6778;BME280;3426;52.244;10.534;2022-11-20T03:27:01;100353.66;;;0.71;65.96
6778;BME280;3426;52.244;10.534;2022-11-20T03:29:28;100357.28;;;0.64;65.76
6778;BME280;3426;52.244;10.534;2022-11-20T03:31:55;100365.75;;;0.75;66.19
6778;BME280;3426;52.244;10.534;2022-11-20T03:34:21;100356.28;;;0.71;66.54
6778;BME280;3426;52.244;10.534;2022-11-20T03:36:48;100363.50;;;0.57;68.14
6778;BME280;3426;52.244;10.534;2022-11-20T03:39:14;100349.22;;;0.76;67.16
6778;BME280;3426;52.244;10.534;2022-11-20T03:41:41;100345.59;;;0.85;65.71
6778;BME280;3426;52.244;10.534;2022-11-20T03:44:10;100343.81;;;0.87;65.54
6778;BME280;3426;52.244;10.534;2022-11-20T03:46:37;100339.00;;;0.66;66.85
6778;BME280;3426;52.244;10.534;2022-11-20T03:49:04;100340.47;;;0.79;66.41
6778;BME280;3426;52.244;10.534;2022-11-20T03:51:33;100343.59;;;0.96;66.26
6778;BME280;3426;52.244;10.534;2022-11-20T03:54:02;100331.50;;;0.94;65.63
6778;BME280;3426;52.244;10.534;2022-11-20T03:56:32;100328.72;;;1.03;65.57
6778;BME280;3426;52.244;10.534;2022-11-20T03:58:59;100330.03;;;0.81;65.40
6778;BME280;3426;52.244;10.534;2022-11-20T04:01:31;100318.03;;;0.72;66.24
6778;BME280;3426;52.244;10.534;2022-11-20T04:03:58;100321.44;;;0.75;66.61
6778;BME280;3426;52.244;10.534;2022-11-20T04:06:33;100320.44;;;0.83;65.94
6778;BME280;3426;52.244;10.534;2022-11-20T04:08:59;100322.16;;;0.84;65.10
6778;BME280;3426;52.244;10.534;2022-11-20T04:11:30;100323.13;;;0.79;65.92
6778;BME280;3426;52.244;10.534;2022-11-20T04:13:59;100314.19;;;0.91;65.70
6778;BME280;3426;52.244;10.534;2022-11-20T04:16:29;100319.66;;;0.77;66.32
6778;BME280;3426;52.244;10.534;2022-11-20T04:18:58;100306.38;;;0.90;65.84
6778;BME280;3426;52.244;10.534;2022-11-20T04:21:25;100313.28;;;0.92;66.13
6778;BME280;3426;52.244;10.534;2022-11-20T04:23:52;100313.59;;;0.77;66.14
6778;BME280;3426;52.244;10.534;2022-11-20T04:26:20;100325.03;;;0.23;68.20
6778;BME280;3426;52.244;10.534;2022-11-20T04:28:47;100313.91;;;0.60;67.28
6778;BME280;3426;52.244;10.534;2022-11-20T04:31:19;100323.09;;;0.35;68.03
6778;BME280;3426;52.244;10.534;2022-11-20T04:33:46;100321.88;;;0.52;67.68
6778;BME280;3426;52.244;10.534;2022-11-20T04:36:18;100310.13;;;0.76;66.48
6778;BME280;3426;52.244;10.534;2022-11-20T04:38:46;100305.91;;;0.71;65.49
6778;BME280;3426;52.244;10.534;2022-11-20T04:41:23;100308.34;;;0.78;65.67
6778;BME280;3426;52.244;10.534;2022-11-20T04:43:54;100314.38;;;0.82;66.21
6778;BME280;3426;52.244;10.534;2022-11-20T04:46:33;100311.72;;;0.85;65.57
6778;BME280;3426;52.244;10.534;2022-11-20T04:49:00;100308.91;;;0.94;65.58
6778;BME280;3426;52.244;10.534;2022-11-20T04:51:27;100304.88;;;0.79;65.23
6778;BME280;3426;52.244;10.534;2022-11-20T04:53:54;100310.19;;;0.73;66.09
6778;BME280;3426;52.244;10.534;2022-11-20T04:56:20;100308.34;;;0.78;66.43
6778;BME280;3426;52.244;10.534;2022-11-20T04:58:47;100308.47;;;0.72;65.71
6778;BME280;3426;52.244;10.534;2022-11-20T05:01:16;100305.31;;;0.55;65.58
6778;BME280;3426;52.244;10.534;2022-11-20T05:03:43;100294.31;;;0.39;66.31
6778;BME280;3426;52.244;10.534;2022-11-20T05:06:12;100307.91;;;0.57;66.14
6778;BME280;3426;52.244;10.534;2022-11-20T05:08:40;100299.94;;;0.64;66.73
6778;BME280;3426;52.244;10.534;2022-11-20T05:11:12;100303.41;;;0.65;66.55
6778;BME280;3426;52.244;10.534;2022-11-20T05:13:38;100304.28;;;-0.37;68.95
6778;BME280;3426;52.244;10.534;2022-11-20T05:16:08;100302.56;;;0.16;68.41
6778;BME280;3426;52.244;10.534;2022-11-20T05:18:35;100305.41;;;0.03;68.83
6778;BME280;3426;52.244;10.534;2022-11-20T05:21:02;100304.38;;;0.13;68.94
6778;BME280;3426;52.244;10.534;2022-11-20T05:23:30;100303.78;;;0.46;67.10
6778;BME280;3426;52.244;10.534;2022-11-20T05:25:58;100312.59;;;-0.13;68.99
6778;BME280;3426;52.244;10.534;2022-11-20T05:28:26;100312.78;;;0.29;68.09
6778;BME280;3426;52.244;10.534;2022-11-20T05:30:53;100321.25;;;0.40;66.91
6778;BME280;3426;52.244;10.534;2022-11-20T05:33:20;100312.72;;;0.32;68.02
6778;BME280;3426;52.244;10.534;2022-11-20T05:35:47;100301.91;;;0.53;66.89
6778;BME280;3426;52.244;10.534;2022-11-20T05:38:14;100305.31;;;0.55;66.14
6778;BME280;3426;52.244;10.534;2022-11-20T05:40:41;100298.28;;;0.60;66.90
6778;BME280;3426;52.244;10.534;2022-11-20T05:43:08;100298.78;;;0.33;67.12
6778;BME280;3426;52.244;10.534;2022-11-20T05:45:34;100288.09;;;0.48;67.08
6778;BME280;3426;52.244;10.534;2022-11-20T05:48:01;100289.19;;;0.81;65.82
6778;BME280;3426;52.244;10.534;2022-11-20T05:50:28;100281.31;;;0.39;66.60
6778;BME280;3426;52.244;10.534;2022-11-20T05:52:54;100278.25;;;0.17;67.68
6778;BME280;3426;52.244;10.534;2022-11-20T05:55:21;100276.72;;;0.04;67.78
6778;BME280;3426;52.244;10.534;2022-11-20T05:57:47;100266.38;;;0.49;66.31
6778;BME280;3426;52.244;10.534;2022-11-20T06:00:14;100263.59;;;0.58;67.57
6778;BME280;3426;52.244;10.534;2022-11-20T06:02:41;100264.31;;;0.65;67.88
6778;BME280;3426;52.244;10.534;2022-11-20T06:05:08;100266.84;;;0.69;66.17
6778;BME280;3426;52.244;10.534;2022-11-20T06:07:34;100264.81;;;0.40;68.02
6778;BME280;3426;52.244;10.534;2022-11-20T06:10:01;100266.69;;;-0.17;69.64
6778;BME280;3426;52.244;10.534;2022-11-20T06:12:27;100285.28;;;0.12;68.96
6778;BME280;3426;52.244;10.534;2022-11-20T06:14:54;100269.78;;;0.51;67.74
6778;BME280;3426;52.244;10.534;2022-11-20T06:17:20;100287.59;;;0.29;69.45
6778;BME280;3426;52.244;10.534;2022-11-20T06:19:47;100286.75;;;0.72;67.40
6778;BME280;3426;52.244;10.534;2022-11-20T06:22:13;100280.94;;;0.59;68.63
6778;BME280;3426;52.244;10.534;2022-11-20T06:24:39;100278.84;;;0.76;68.02
6778;BME280;3426;52.244;10.534;2022-11-20T06:27:06;100274.28;;;0.88;67.81
6778;BME280;3426;52.244;10.534;2022-11-20T06:29:32;100274.19;;;0.91;67.06
6778;BME280;3426;52.244;10.534;2022-11-20T06:31:59;100276.03;;;0.42;69.04
6778;BME280;3426;52.244;10.534;2022-11-20T06:34:26;100280.97;;;0.56;68.33
6778;BME280;3426;52.244;10.534;2022-11-20T06:36:52;100275.13;;;0.88;66.76
6778;BME280;3426;52.244;10.534;2022-11-20T06:39:19;100261.06;;;0.97;66.78
6778;BME280;3426;52.244;10.534;2022-11-20T06:41:46;100272.41;;;0.94;66.47
6778;BME280;3426;52.244;10.534;2022-11-20T06:44:12;100263.63;;;0.98;67.37
6778;BME280;3426;52.244;10.534;2022-11-20T06:46:39;100260.72;;;1.12;65.85
6778;BME280;3426;52.244;10.534;2022-11-20T06:49:05;100270.41;;;1.05;65.70
6778;BME280;3426;52.244;10.534;2022-11-20T06:51:32;100264.16;;;1.14;66.42
6778;BME280;3426;52.244;10.534;2022-11-20T06:53:58;100265.53;;;0.90;66.34
6778;BME280;3426;52.244;10.534;2022-11-20T06:56:27;100263.16;;;1.20;66.42
6778;BME280;3426;52.244;10.534;2022-11-20T06:58:54;100262.31;;;1.19;65.96
6778;BME280;3426;52.244;10.534;2022-11-20T07:01:20;100248.66;;;1.06;65.38
6778;BME280;3426;52.244;10.534;2022-11-20T07:03:49;100254.94;;;0.98;66.04
6778;BME280;3426;52.244;10.534;2022-11-20T07:06:20;100251.75;;;1.25;65.25
6778;BME280;3426;52.244;10.534;2022-11-20T07:08:46;100260.31;;;1.30;65.61
6778;BME280;3426;52.244;10.534;2022-11-20T07:11:13;100263.94;;;1.23;66.24
6778;BME280;3426;52.244;10.534;2022-11-20T07:13:40;100259.34;;;1.35;65.43
6778;BME280;3426;52.244;10.534;2022-11-20T07:16:07;100264.41;;;1.42;65.83
6778;BME280;3426;52.244;10.534;2022-11-20T07:18:35;100262.19;;;1.25;65.51
6778;BME280;3426;52.244;10.534;2022-11-20T07:21:03;100256.00;;;1.28;66.25
6778;BME280;3426;52.244;10.534;2022-11-20T07:23:30;100257.91;;;1.21;67.65
6778;BME280;3426;52.244;10.534;2022-11-20T07:25:57;100256.56;;;1.42;66.30
6778;BME280;3426;52.244;10.534;2022-11-20T07:28:23;100259.56;;;1.24;65.00
6778;BME280;3426;52.244;10.534;2022-11-20T07:30:51;100245.63;;;1.26;66.09
6778;BME280;3426;52.244;10.534;2022-11-20T07:33:18;100249.47;;;1.47;65.64
6778;BME280;3426;52.244;10.534;2022-11-20T07:35:45;100254.03;;;1.39;64.62
6778;BME280;3426;52.244;10.534;2022-11-20T07:38:11;100257.34;;;1.46;64.74
6778;BME280;3426;52.244;10.534;2022-11-20T07:40:38;100258.78;;;1.59;63.97
6778;BME280;3426;52.244;10.534;2022-11-20T07:43:05;100259.19;;;1.41;65.90
6778;BME280;3426;52.244;10.534;2022-11-20T07:45:31;100258.16;;;0.69;67.80
6778;BME280;3426;52.244;10.534;2022-11-20T07:47:58;100268.09;;;1.32;66.03
6778;BME280;3426;52.244;10.534;2022-11-20T07:50:24;100257.72;;;1.29;65.25
6778;BME280;3426;52.244;10.534;2022-11-20T07:52:50;100260.09;;;1.01;65.90
6778;BME280;3426;52.244;10.534;2022-11-20T07:55:18;100259.81;;;1.13;65.25
6778;BME280;3426;52.244;10.534;2022-11-20T07:57:44;100245.47;;;1.32;65.33
6778;BME280;3426;52.244;10.534;2022-11-20T08:00:11;100260.66;;;1.52;65.20
6778;BME280;3426;52.244;10.534;2022-11-20T08:02:39;100251.91;;;1.55;64.30
6778;BME280;3426;52.244;10.534;2022-11-20T08:05:08;100248.03;;;1.71;63.55
6778;BME280;3426;52.244;10.534;2022-11-20T08:07:38;100247.91;;;1.76;63.89
6778;BME280;3426;52.244;10.534;2022-11-20T08:10:07;100244.50;;;1.74;64.24
6778;BME280;3426;52.244;10.534;2022-11-20T08:12:34;100245.13;;;1.83;63.87
6778;BME280;3426;52.244;10.534;2022-11-20T08:15:19;100244.91;;;1.57;64.67
6778;BME280;3426;52.244;10.534;2022-11-20T08:17:45;100248.81;;;1.39;65.42
6778;BME280;3426;52.244;10.534;2022-11-20T08:20:32;100247.34;;;1.63;65.29
6778;BME280;3426;52.244;10.534;2022-11-20T08:23:00;100250.06;;;1.60;65.93
6778;BME280;3426;52.244;10.534;2022-11-20T08:25:30;100258.38;;;1.39;65.58
6778;BME280;3426;52.244;10.534;2022-11-20T08:27:58;100254.72;;;1.83;64.69
6778;BME280;3426;52.244;10.534;2022-11-20T08:30:27;100268.63;;;1.48;65.37
6778;BME280;3426;52.244;10.534;2022-11-20T08:32:54;100269.31;;;1.90;64.01
6778;BME280;3426;52.244;10.534;2022-11-20T08:35:21;100265.63;;;1.65;64.69
6778;BME280;3426;52.244;10.534;2022-11-20T08:37:48;100269.13;;;1.98;64.19
6778;BME280;3426;52.244;10.534;2022-11-20T08:40:15;100259.56;;;1.97;64.67
6778;BME280;3426;52.244;10.534;2022-11-20T08:42:49;100268.31;;;1.60;66.54
6778;BME280;3426;52.244;10.534;2022-11-20T08:45:17;100264.38;;;1.79;66.51
6778;BME280;3426;52.244;10.534;2022-11-20T08:47:45;100264.50;;;1.36;65.72
6778;BME280;3426;52.244;10.534;2022-11-20T08:50:14;100264.22;;;1.50;64.56
6778;BME280;3426;52.244;10.534;2022-11-20T08:52:41;100265.44;;;1.33;65.48
6778;BME280;3426;52.244;10.534;2022-11-20T08:55:08;100263.81;;;1.67;62.88
6778;BME280;3426;52.244;10.534;2022-11-20T08:57:36;100263.97;;;1.61;63.64
6778;BME280;3426;52.244;10.534;2022-11-20T09:00:04;100261.88;;;2.09;61.92
6778;BME280;3426;52.244;10.534;2022-11-20T09:02:32;100256.47;;;1.82;62.12
6778;BME280;3426;52.244;10.534;2022-11-20T09:04:59;100258.34;;;1.40;63.05
6778;BME280;3426;52.244;10.534;2022-11-20T09:07:25;100257.72;;;1.29;64.19
6778;BME280;3426;52.244;10.534;2022-11-20T09:09:51;100259.44;;;1.30;66.07
6778;BME280;3426;52.244;10.534;2022-11-20T09:12:38;100256.06;;;1.98;62.69
6778;BME280;3426;52.244;10.534;2022-11-20T09:15:05;100249.75;;;1.72;65.11
6778;BME280;3426;52.244;10.534;2022-11-20T09:17:31;100240.69;;;2.20;62.35
6778;BME280;3426;52.244;10.534;2022-11-20T09:19:58;100242.84;;;1.70;64.46
6778;BME280;3426;52.244;10.534;2022-11-20T09:22:24;100245.59;;;1.99;64.12
6778;BME280;3426;52.244;10.534;2022-11-20T09:24:51;100247.88;;;2.11;63.07
6778;BME280;3426;52.244;10.534;2022-11-20T09:27:17;100235.41;;;2.21;62.35
6778;BME280;3426;52.244;10.534;2022-11-20T09:29:47;100228.75;;;2.11;61.59
6778;BME280;3426;52.244;10.534;2022-11-20T09:32:14;100224.94;;;2.54;61.31
6778;BME280;3426;52.244;10.534;2022-11-20T09:34:40;100225.06;;;2.51;60.71
6778;BME280;3426;52.244;10.534;2022-11-20T09:37:07;100225.50;;;2.65;61.06
6778;BME280;3426;52.244;10.534;2022-11-20T09:39:33;100221.50;;;2.83;60.22
6778;BME280;3426;52.244;10.534;2022-11-20T09:42:14;100225.84;;;2.84;59.89
6778;BME280;3426;52.244;10.534;2022-11-20T09:50:56;100227.56;;;2.54;60.27
6778;BME280;3426;52.244;10.534;2022-11-20T09:56:03;100230.72;;;2.65;58.58
6778;BME280;3426;52.244;10.534;2022-11-20T10:03:45;100219.38;;;2.96;58.09
6778;BME280;3426;52.244;10.534;2022-11-20T10:06:18;100206.78;;;3.36;57.34
6778;BME280;3426;52.244;10.534;2022-11-20T10:09:14;100211.19;;;3.34;56.92
6778;BME280;3426;52.244;10.534;2022-11-20T10:12:20;100201.84;;;3.54;56.25
6778;BME280;3426;52.244;10.534;2022-11-20T10:23:28;100205.97;;;2.77;58.03
6778;BME280;3426;52.244;10.534;2022-11-20T10:26:31;100218.13;;;3.63;55.83
6778;BME280;3426;52.244;10.534;2022-11-20T10:29:12;100211.69;;;3.47;54.73
6778;BME280;3426;52.244;10.534;2022-11-20T10:31:42;100219.13;;;3.86;53.48
6778;BME280;3426;52.244;10.534;2022-11-20T10:34:18;100224.03;;;3.70;54.34
6778;BME280;3426;52.244;10.534;2022-11-20T10:37:14;100213.22;;;3.26;57.00
6778;BME280;3426;52.244;10.534;2022-11-20T10:39:50;100211.50;;;3.52;56.07
6778;BME280;3426;52.244;10.534;2022-11-20T10:42:48;100211.72;;;3.72;55.63
6778;BME280;3426;52.244;10.534;2022-11-20T10:48:20;100204.38;;;3.29;57.07
6778;BME280;3426;52.244;10.534;2022-11-20T10:53:45;100197.13;;;3.65;54.99
6778;BME280;3426;52.244;10.534;2022-11-20T10:56:19;100200.53;;;3.67;55.99
6778;BME280;3426;52.244;10.534;2022-11-20T10:58:54;100193.94;;;4.07;55.11
6778;BME280;3426;52.244;10.534;2022-11-20T11:01:23;100187.22;;;4.48;53.67
6778;BME280;3426;52.244;10.534;2022-11-20T11:03:51;100181.06;;;4.25;55.08
6778;BME280;3426;52.244;10.534;2022-11-20T11:06:37;100185.25;;;3.55;55.71
6778;BME280;3426;52.244;10.534;2022-11-20T11:09:16;100177.06;;;4.15;55.87
6778;BME280;3426;52.244;10.534;2022-11-20T11:11:46;100181.84;;;3.51;55.63
6778;BME280;3426;52.244;10.534;2022-11-20T11:14:15;100181.00;;;3.77;56.46
6778;BME280;3426;52.244;10.534;2022-11-20T11:16:56;100182.78;;;3.22;57.86
6778;BME280;3426;52.244;10.534;2022-11-20T11:19:23;100182.56;;;3.56;55.65
6778;BME280;3426;52.244;10.534;2022-11-20T11:21:55;100184.47;;;3.25;56.64
6778;BME280;3426;52.244;10.534;2022-11-20T11:24:29;100186.06;;;3.02;57.51
6778;BME280;3426;52.244;10.534;2022-11-20T11:27:14;100180.75;;;3.32;57.31
6778;BME280;3426;52.244;10.534;2022-11-20T11:29:45;100178.13;;;2.76;58.22
6778;BME280;3426;52.244;10.534;2022-11-20T11:32:17;100163.84;;;3.93;55.83
6778;BME280;3426;52.244;10.534;2022-11-20T11:34:44;100167.97;;;3.76;55.98
6778;BME280;3426;52.244;10.534;2022-11-20T11:37:19;100169.63;;;3.52;57.23
6778;BME280;3426;52.244;10.534;2022-11-20T11:39:48;100177.03;;;3.11;58.07
6778;BME280;3426;52.244;10.534;2022-11-20T11:42:35;100171.25;;;3.29;57.39
6778;BME280;3426;52.244;10.534;2022-11-20T11:45:06;100177.13;;;3.36;56.77
6778;BME280;3426;52.244;10.534;2022-11-20T11:53:08;100158.34;;;3.50;57.84
6778;BME280;3426;52.244;10.534;2022-11-20T11:58:20;100159.38;;;3.17;58.19
6778;BME280;3426;52.244;10.534;2022-11-20T12:03:35;100165.78;;;3.09;58.56
6778;BME280;3426;52.244;10.534;2022-11-20T12:06:12;100150.00;;;3.65;58.16
6778;BME280;3426;52.244;10.534;2022-11-20T12:11:42;100149.50;;;3.79;55.96
6778;BME280;3426;52.244;10.534;2022-11-20T12:14:22;100145.59;;;4.62;54.09
6778;BME280;3426;52.244;10.534;2022-11-20T12:16:53;100146.72;;;3.83;57.43
6778;BME280;3426;52.244;10.534;2022-11-20T12:19:21;100147.19;;;4.19;57.57
6778;BME280;3426;52.244;10.534;2022-11-20T12:24:49;100132.16;;;4.93;53.77
6778;BME280;3426;52.244;10.534;2022-11-20T12:30:17;100146.47;;;3.39;57.33
6778;BME280;3426;52.244;10.534;2022-11-20T12:47:49;100131.84;;;3.06;57.23
6778;BME280;3426;52.244;10.534;2022-11-20T12:50:44;100128.66;;;4.01;56.15
6778;BME280;3426;52.244;10.534;2022-11-20T13:01:51;100122.03;;;4.39;55.70
6778;BME280;3426;52.244;10.534;2022-11-20T13:07:10;100115.44;;;4.74;54.65
6778;BME280;3426;52.244;10.534;2022-11-20T13:09:44;100110.09;;;4.77;54.69
6778;BME280;3426;52.244;10.534;2022-11-20T13:12:53;100107.22;;;5.05;53.49
6778;BME280;3426;52.244;10.534;2022-11-20T13:18:10;100112.47;;;3.89;55.35
6778;BME280;3426;52.244;10.534;2022-11-20T13:20:44;100115.94;;;3.90;54.94
6778;BME280;3426;52.244;10.534;2022-11-20T13:23:23;100124.63;;;3.14;56.22
6778;BME280;3426;52.244;10.534;2022-11-20T13:25:50;100117.06;;;3.58;56.37
6778;BME280;3426;52.244;10.534;2022-11-20T13:30:52;100118.31;;;3.97;56.10
6778;BME280;3426;52.244;10.534;2022-11-20T13:36:00;100123.25;;;3.29;57.32
6778;BME280;3426;52.244;10.534;2022-11-20T13:38:28;100102.84;;;3.65;57.41
6778;BME280;3426;52.244;10.534;2022-11-20T13:41:00;100111.63;;;3.64;57.08
6778;BME280;3426;52.244;10.534;2022-11-20T13:43:47;100105.00;;;4.27;56.12
6778;BME280;3426;52.244;10.534;2022-11-20T13:46:14;100113.47;;;4.10;56.50
6778;BME280;3426;52.244;10.534;2022-11-20T13:48:44;100107.16;;;4.16;55.95
6778;BME280;3426;52.244;10.534;2022-11-20T13:56:54;100111.72;;;3.34;57.56
6778;BME280;3426;52.244;10.534;2022-11-20T14:02:16;100101.72;;;3.72;55.58
6778;BME280;3426;52.244;10.534;2022-11-20T14:04:51;100101.81;;;3.44;55.81
6778;BME280;3426;52.244;10.534;2022-11-20T14:07:20;100096.47;;;2.94;55.79
6778;BME280;3426;52.244;10.534;2022-11-20T14:09:55;100089.72;;;4.15;54.01
6778;BME280;3426;52.244;10.534;2022-11-20T14:12:30;100085.69;;;3.81;55.35
6778;BME280;3426;52.244;10.534;2022-11-20T14:14:58;100088.06;;;4.12;54.98
6778;BME280;3426;52.244;10.534;2022-11-20T14:17:35;100091.19;;;3.98;54.24
6778;BME280;3426;52.244;10.534;2022-11-20T14:20:05;100088.09;;;3.87;55.08
6778;BME280;3426;52.244;10.534;2022-11-20T14:22:32;100086.28;;;4.36;55.56
6778;BME280;3426;52.244;10.534;2022-11-20T14:27:42;100084.13;;;4.24;56.65
6778;BME280;3426;52.244;10.534;2022-11-20T14:30:14;100098.75;;;4.06;57.09
6778;BME280;3426;52.244;10.534;2022-11-20T14:32:42;100102.59;;;4.44;57.01
6778;BME280;3426;52.244;10.534;2022-11-20T14:35:14;100103.28;;;4.49;56.94
6778;BME280;3426;52.244;10.534;2022-11-20T14:37:45;100084.94;;;4.71;55.90
6778;BME280;3426;52.244;10.534;2022-11-20T14:42:52;100087.09;;;4.38;57.00
6778;BME280;3426;52.244;10.534;2022-11-20T14:45:20;100095.78;;;4.62;55.83
6778;BME280;3426;52.244;10.534;2022-11-20T14:47:48;100081.50;;;3.51;59.17
6778;BME280;3426;52.244;10.534;2022-11-20T14:50:22;100084.88;;;4.28;56.83
6778;BME280;3426;52.244;10.534;2022-11-20T14:52:57;100071.22;;;4.41;56.26
6778;BME280;3426;52.244;10.534;2022-11-20T14:55:53;100072.06;;;4.42;56.70
6778;BME280;3426;52.244;10.534;2022-11-20T14:58:34;100065.50;;;4.32;55.82
6778;BME280;3426;52.244;10.534;2022-11-20T15:01:06;100067.72;;;3.95;56.41
6778;BME280;3426;52.244;10.534;2022-11-20T15:03:38;100061.91;;;4.11;57.33
6778;BME280;3426;52.244;10.534;2022-11-20T15:06:07;100055.13;;;4.29;56.52
6778;BME280;3426;52.244;10.534;2022-11-20T15:08:34;100054.25;;;3.58;58.81
6778;BME280;3426;52.244;10.534;2022-11-20T15:11:01;100054.16;;;4.08;57.20